Time;durP1;ratioP1;P1;durP2;ratioP2;P2;SDS_P1;SDS_P2;PMS_P1;PMS_P2;Temp;Humidity;BMP_temperature;BMP_pressure;BME280_temperature;BME280_humidity;BME280_pressure;Samples;Min_cycle;Max_cycle;Signal;HPM_P1;HPM_P2
2023/10/30 00:00:07;;;;;;;3.53;1.35;;;;;;;;;;5093808;28;20024;-72
2023/10/30 00:02:37;;;;;;;4.28;1.45;;;;;;;;;;5074386;28;20494;-70
2023/10/30 00:05:03;;;;;;;8.82;1.90;;;;;;;;;;5091122;28;20039;-69
2023/10/30 00:07:29;;;;;;;4.20;1.20;;;;;;;;;;5099660;28;20059;-71
2023/10/30 00:09:55;;;;;;;5.03;1.67;;;;;;;;;;5091461;28;20055;-70
2023/10/30 00:12:20;;;;;;;6.85;1.42;;;;;;;;;;5076183;28;20085;-69
2023/10/30 00:14:46;;;;;;;4.93;1.40;;;;;;;;;;5095747;28;20028;-70
2023/10/30 00:17:12;;;;;;;8.23;1.50;;;;;;;;;;5072327;28;20032;-71
2023/10/30 00:19:37;;;;;;;6.47;1.70;;;;;;;;;;5092011;28;20036;-71
2023/10/30 00:22:03;;;;;;;6.95;1.42;;;;;;;;;;5096286;28;20038;-69
2023/10/30 00:24:29;;;;;;;7.55;1.73;;;;;;;;;;5095592;28;20055;-71
2023/10/30 00:26:55;;;;;;;8.57;1.80;;;;;;;;;;5088161;28;20023;-70
2023/10/30 00:29:20;;;;;;;5.43;1.35;;;;;;;;;;5091237;28;20500;-70
2023/10/30 00:31:46;;;;;;;5.80;2.10;;;;;;;;;;5091055;28;20032;-70
2023/10/30 00:34:12;;;;;;;5.25;1.40;;;;;;;;;;5089818;28;20036;-71
2023/10/30 00:36:38;;;;;;;6.05;1.42;;;;;;;;;;5110609;28;20020;-71
2023/10/30 00:39:03;;;;;;;7.32;1.33;;;;;;;;;;5111479;28;20035;-70
2023/10/30 00:41:29;;;;;;;5.10;1.30;;;;;;;;;;5098363;28;20023;-70
2023/10/30 00:43:54;;;;;;;6.10;1.42;;;;;;;;;;5110921;28;20400;-71
2023/10/30 00:46:19;;;;;;;8.82;1.40;;;;;;;;;;5091020;28;20020;-70
2023/10/30 00:48:45;;;;;;;6.00;1.30;;;;;;;;;;5091046;28;20123;-70
2023/10/30 00:51:10;;;;;;;9.70;2.03;;;;;;;;;;5088118;28;20084;-69
2023/10/30 00:53:36;;;;;;;5.45;1.35;;;;;;;;;;5091165;28;20114;-70
2023/10/30 00:56:01;;;;;;;7.22;1.45;;;;;;;;;;5092913;28;20386;-71
2023/10/30 00:58:27;;;;;;;7.75;1.50;;;;;;;;;;5075273;28;20039;-70
2023/10/30 01:00:52;;;;;;;6.97;1.55;;;;;;;;;;5108072;28;20043;-70
2023/10/30 01:03:23;;;;;;;5.90;1.38;;;;;;;;;;5078878;28;20032;-70
2023/10/30 01:05:58;;;;;;;8.38;1.40;;;;;;;;;;5106512;28;20028;-70
2023/10/30 01:08:23;;;;;;;5.50;1.60;;;;;;;;;;5077462;28;20852;-69
2023/10/30 01:10:49;;;;;;;3.20;1.20;;;;;;;;;;5091362;28;20036;-70
2023/10/30 01:13:17;;;;;;;6.63;1.30;;;;;;;;;;5093195;28;20036;-70
2023/10/30 01:15:43;;;;;;;9.63;1.85;;;;;;;;;;5090182;28;20024;-70
2023/10/30 01:18:11;;;;;;;6.95;1.50;;;;;;;;;;5089975;28;20044;-69
2023/10/30 01:20:40;;;;;;;7.70;1.70;;;;;;;;;;5092877;28;20028;-71
2023/10/30 01:23:05;;;;;;;7.00;2.00;;;;;;;;;;5089411;28;20047;-70
2023/10/30 01:25:31;;;;;;;7.68;1.73;;;;;;;;;;5089865;28;20503;-71
2023/10/30 01:27:56;;;;;;;7.90;1.67;;;;;;;;;;5092798;28;20028;-70
2023/10/30 01:30:21;;;;;;;8.38;1.60;;;;;;;;;;5089486;28;20024;-70
2023/10/30 01:32:50;;;;;;;12.38;2.00;;;;;;;;;;5093817;28;20034;-69
2023/10/30 01:35:15;;;;;;;8.48;1.75;;;;;;;;;;5108448;28;20114;-71
2023/10/30 01:37:42;;;;;;;9.40;1.95;;;;;;;;;;5090942;28;20488;-71
2023/10/30 01:40:09;;;;;;;8.00;1.70;;;;;;;;;;5091596;28;20039;-71
2023/10/30 01:42:34;;;;;;;7.75;1.67;;;;;;;;;;5091206;28;20030;-70
2023/10/30 01:45:00;;;;;;;5.28;1.55;;;;;;;;;;5090533;28;20040;-71
2023/10/30 01:47:25;;;;;;;7.50;1.45;;;;;;;;;;5097245;28;20954;-71
2023/10/30 01:49:55;;;;;;;6.85;1.65;;;;;;;;;;5093436;28;20023;-71
2023/10/30 01:52:21;;;;;;;5.53;1.45;;;;;;;;;;5089955;28;20111;-71
2023/10/30 01:54:49;;;;;;;6.60;2.00;;;;;;;;;;5103232;28;20127;-71
2023/10/30 01:57:17;;;;;;;6.78;1.45;;;;;;;;;;5104773;28;20035;-71
2023/10/30 01:59:42;;;;;;;7.88;1.40;;;;;;;;;;5104596;28;20032;-71
2023/10/30 02:02:08;;;;;;;6.32;1.60;;;;;;;;;;5101107;28;20043;-71
2023/10/30 02:04:36;;;;;;;6.72;1.65;;;;;;;;;;5091005;28;20032;-71
2023/10/30 02:07:03;;;;;;;7.70;1.90;;;;;;;;;;5093644;28;20039;-72
2023/10/30 02:09:29;;;;;;;5.65;1.45;;;;;;;;;;5074468;28;20286;-71
2023/10/30 02:11:56;;;;;;;7.93;1.90;;;;;;;;;;5093592;28;20044;-71
2023/10/30 02:14:21;;;;;;;11.13;2.05;;;;;;;;;;5092755;28;20036;-71
2023/10/30 02:16:46;;;;;;;6.20;1.50;;;;;;;;;;5094179;28;20035;-71
2023/10/30 02:19:23;;;;;;;8.18;1.77;;;;;;;;;;5102760;28;20080;-70
2023/10/30 02:21:48;;;;;;;10.82;1.80;;;;;;;;;;5096829;28;20040;-70
2023/10/30 02:24:14;;;;;;;8.40;1.40;;;;;;;;;;5075177;28;20051;-70
2023/10/30 02:26:40;;;;;;;6.40;1.65;;;;;;;;;;5091617;28;20081;-70
2023/10/30 02:29:05;;;;;;;7.50;1.35;;;;;;;;;;5094148;28;20119;-70
2023/10/30 02:31:32;;;;;;;6.35;1.58;;;;;;;;;;5109122;28;20210;-69
2023/10/30 02:34:00;;;;;;;5.82;1.55;;;;;;;;;;5110125;28;20468;-70
2023/10/30 02:36:25;;;;;;;6.10;1.40;;;;;;;;;;5093406;28;20051;-70
2023/10/30 02:38:52;;;;;;;8.82;1.75;;;;;;;;;;5075201;28;20105;-70
2023/10/30 02:41:21;;;;;;;7.43;2.25;;;;;;;;;;5093415;28;20020;-69
2023/10/30 02:43:46;;;;;;;4.75;1.50;;;;;;;;;;5103555;28;20080;-70
2023/10/30 02:46:12;;;;;;;4.93;1.35;;;;;;;;;;5096973;28;20035;-70
2023/10/30 02:48:37;;;;;;;7.57;1.60;;;;;;;;;;5092538;28;20039;-71
2023/10/30 02:51:03;;;;;;;5.30;1.42;;;;;;;;;;5093251;28;20032;-72
2023/10/30 02:53:29;;;;;;;5.95;1.55;;;;;;;;;;5094006;28;20024;-70
2023/10/30 02:55:54;;;;;;;7.35;1.73;;;;;;;;;;5100130;28;20460;-71
2023/10/30 02:58:19;;;;;;;7.05;1.70;;;;;;;;;;5095669;28;20414;-70
2023/10/30 03:00:45;;;;;;;7.82;1.52;;;;;;;;;;5093709;28;20107;-71
2023/10/30 03:03:13;;;;;;;7.70;1.73;;;;;;;;;;5092195;28;20043;-71
2023/10/30 03:05:38;;;;;;;7.68;1.58;;;;;;;;;;5074447;28;20024;-69
2023/10/30 03:08:04;;;;;;;7.40;1.95;;;;;;;;;;5092769;28;20035;-71
2023/10/30 03:10:30;;;;;;;8.63;1.73;;;;;;;;;;5072715;28;20095;-71
2023/10/30 03:12:56;;;;;;;9.30;1.70;;;;;;;;;;5097467;28;20123;-70
2023/10/30 03:15:21;;;;;;;7.20;1.52;;;;;;;;;;5091741;28;20051;-73
2023/10/30 03:17:47;;;;;;;10.80;1.95;;;;;;;;;;5074675;28;20056;-70
2023/10/30 03:20:13;;;;;;;10.52;1.98;;;;;;;;;;5092054;28;20036;-70
2023/10/30 03:22:38;;;;;;;6.70;1.80;;;;;;;;;;5073784;28;20027;-71
2023/10/30 03:25:04;;;;;;;8.07;1.60;;;;;;;;;;5095173;28;20369;-71
2023/10/30 03:27:30;;;;;;;11.55;1.88;;;;;;;;;;5096901;28;20055;-71
2023/10/30 03:29:55;;;;;;;7.95;1.60;;;;;;;;;;5099644;28;20058;-71
2023/10/30 03:32:20;;;;;;;6.30;1.70;;;;;;;;;;5092286;28;20025;-70
2023/10/30 03:34:48;;;;;;;9.52;2.05;;;;;;;;;;5092218;28;20036;-71
2023/10/30 03:37:13;;;;;;;8.40;1.45;;;;;;;;;;5091920;28;20039;-71
2023/10/30 03:39:39;;;;;;;6.43;1.40;;;;;;;;;;5100884;28;20030;-71
2023/10/30 03:42:07;;;;;;;10.82;1.52;;;;;;;;;;5078580;28;20081;-71
2023/10/30 03:44:32;;;;;;;8.38;1.80;;;;;;;;;;5106240;28;20086;-71
2023/10/30 03:46:58;;;;;;;8.63;1.70;;;;;;;;;;5095691;28;20032;-71
2023/10/30 03:49:23;;;;;;;7.15;1.48;;;;;;;;;;5091447;28;20461;-71
2023/10/30 03:51:49;;;;;;;7.07;1.83;;;;;;;;;;5092596;28;20032;-71
2023/10/30 03:54:14;;;;;;;4.25;1.25;;;;;;;;;;5078970;28;20126;-71
2023/10/30 03:56:39;;;;;;;8.73;1.90;;;;;;;;;;5104130;28;20040;-71
2023/10/30 03:59:05;;;;;;;7.18;1.70;;;;;;;;;;5092212;28;20024;-71
2023/10/30 04:01:30;;;;;;;5.50;1.65;;;;;;;;;;5074348;28;20457;-71
2023/10/30 04:03:56;;;;;;;8.65;1.80;;;;;;;;;;5092622;28;20107;-71
2023/10/30 04:06:21;;;;;;;8.45;1.92;;;;;;;;;;5095738;28;20024;-70
2023/10/30 04:08:47;;;;;;;10.85;1.90;;;;;;;;;;5084297;28;20466;-71
2023/10/30 04:11:15;;;;;;;13.75;2.00;;;;;;;;;;5103309;28;20032;-71
2023/10/30 04:13:40;;;;;;;5.68;1.60;;;;;;;;;;5112230;28;20103;-71
2023/10/30 04:16:08;;;;;;;7.68;1.63;;;;;;;;;;5093265;28;20111;-71
2023/10/30 04:18:34;;;;;;;7.10;1.80;;;;;;;;;;5091351;28;20032;-71
2023/10/30 04:21:03;;;;;;;7.75;2.00;;;;;;;;;;5074530;28;20038;-71
2023/10/30 04:23:29;;;;;;;8.35;1.80;;;;;;;;;;5091371;28;20115;-71
2023/10/30 04:25:55;;;;;;;9.05;1.90;;;;;;;;;;5088320;28;20235;-70
2023/10/30 04:28:21;;;;;;;3.55;1.40;;;;;;;;;;5091110;28;20533;-70
2023/10/30 04:30:48;;;;;;;9.30;1.73;;;;;;;;;;5091806;28;20032;-71
2023/10/30 04:33:14;;;;;;;6.90;1.77;;;;;;;;;;5088235;28;20044;-71
2023/10/30 04:35:39;;;;;;;8.60;1.65;;;;;;;;;;5090004;28;20118;-71
2023/10/30 04:38:05;;;;;;;5.55;1.48;;;;;;;;;;5107452;28;20024;-71
2023/10/30 04:40:31;;;;;;;8.23;1.80;;;;;;;;;;5097240;28;20448;-70
2023/10/30 04:42:56;;;;;;;6.93;1.50;;;;;;;;;;5092183;28;20047;-71
2023/10/30 04:45:21;;;;;;;5.68;1.50;;;;;;;;;;5089619;28;20437;-70
2023/10/30 04:47:47;;;;;;;9.82;1.77;;;;;;;;;;5093725;28;20107;-71
2023/10/30 04:50:16;;;;;;;8.90;1.85;;;;;;;;;;5094177;28;20162;-71
2023/10/30 04:52:41;;;;;;;8.02;1.80;;;;;;;;;;5101642;28;20032;-71
2023/10/30 04:55:07;;;;;;;9.27;1.67;;;;;;;;;;5099739;28;20046;-71
2023/10/30 04:57:32;;;;;;;8.32;1.67;;;;;;;;;;5099818;28;20034;-71
2023/10/30 04:59:58;;;;;;;7.88;1.60;;;;;;;;;;5097802;28;20455;-72
2023/10/30 05:02:23;;;;;;;6.40;1.58;;;;;;;;;;5097665;28;20526;-70
2023/10/30 05:04:49;;;;;;;7.85;1.85;;;;;;;;;;5093611;28;20024;-71
2023/10/30 05:07:15;;;;;;;9.27;2.08;;;;;;;;;;5094039;28;20028;-71
2023/10/30 05:09:41;;;;;;;11.75;1.90;;;;;;;;;;5090313;28;20099;-71
2023/10/30 05:12:06;;;;;;;5.45;1.92;;;;;;;;;;5098489;28;20398;-71
2023/10/30 05:14:32;;;;;;;10.10;1.75;;;;;;;;;;5105689;28;20032;-71
2023/10/30 05:16:57;;;;;;;5.65;1.52;;;;;;;;;;5091985;28;20035;-71
2023/10/30 05:19:23;;;;;;;8.98;1.73;;;;;;;;;;5089236;28;20035;-71
2023/10/30 05:21:48;;;;;;;7.80;1.73;;;;;;;;;;5090863;28;20453;-71
2023/10/30 05:24:14;;;;;;;8.38;2.53;;;;;;;;;;5102148;28;20070;-71
2023/10/30 05:26:39;;;;;;;6.93;1.45;;;;;;;;;;5103184;28;20028;-71
2023/10/30 05:29:05;;;;;;;8.05;2.38;;;;;;;;;;5110944;28;20388;-71
2023/10/30 05:31:30;;;;;;;7.15;1.50;;;;;;;;;;5111447;28;20027;-71
2023/10/30 05:33:55;;;;;;;6.75;1.90;;;;;;;;;;5111697;28;20084;-71
2023/10/30 05:36:21;;;;;;;8.45;2.05;;;;;;;;;;5093224;28;20026;-70
2023/10/30 05:38:46;;;;;;;8.07;1.65;;;;;;;;;;5111158;28;20532;-71
2023/10/30 05:41:12;;;;;;;6.28;1.65;;;;;;;;;;5115477;28;20028;-71
2023/10/30 05:43:37;;;;;;;8.02;1.80;;;;;;;;;;5100098;28;20028;-71
2023/10/30 05:46:03;;;;;;;10.32;2.13;;;;;;;;;;5077286;28;20028;-71
2023/10/30 05:48:28;;;;;;;6.70;1.75;;;;;;;;;;5087837;28;20036;-71
2023/10/30 05:50:54;;;;;;;9.02;1.90;;;;;;;;;;5097375;28;20050;-71
2023/10/30 05:53:19;;;;;;;8.25;1.80;;;;;;;;;;5094715;28;20043;-71
2023/10/30 05:55:44;;;;;;;4.63;1.70;;;;;;;;;;5094423;28;20024;-71
2023/10/30 05:58:14;;;;;;;8.35;1.92;;;;;;;;;;5095184;28;20027;-71
2023/10/30 06:00:39;;;;;;;6.10;1.55;;;;;;;;;;5109099;28;20149;-75
2023/10/30 06:03:09;;;;;;;7.47;1.65;;;;;;;;;;5115068;28;20496;-77
2023/10/30 06:05:34;;;;;;;8.37;1.83;;;;;;;;;;5114748;28;20571;-75
2023/10/30 06:08:00;;;;;;;10.90;2.17;;;;;;;;;;5114214;28;20106;-76
2023/10/30 06:10:25;;;;;;;7.78;1.80;;;;;;;;;;5095793;28;20051;-75
2023/10/30 06:12:51;;;;;;;6.53;1.85;;;;;;;;;;5114473;28;20035;-77
2023/10/30 06:15:16;;;;;;;9.45;2.25;;;;;;;;;;5098389;28;20114;-77
2023/10/30 06:17:42;;;;;;;6.57;2.00;;;;;;;;;;5106943;28;20031;-77
2023/10/30 06:20:11;;;;;;;6.47;1.90;;;;;;;;;;5094781;28;20031;-77
2023/10/30 06:22:37;;;;;;;9.77;1.83;;;;;;;;;;5094055;28;20036;-79
2023/10/30 06:25:04;;;;;;;6.68;2.38;;;;;;;;;;5094794;28;20468;-78
2023/10/30 06:27:31;;;;;;;7.53;2.03;;;;;;;;;;5093753;28;20059;-78
2023/10/30 06:29:57;;;;;;;8.40;1.70;;;;;;;;;;5105840;28;20039;-80
2023/10/30 06:32:22;;;;;;;10.10;1.92;;;;;;;;;;5114274;28;20043;-79
2023/10/30 06:34:47;;;;;;;5.85;2.00;;;;;;;;;;5114212;28;20376;-80
2023/10/30 06:37:14;;;;;;;10.43;1.95;;;;;;;;;;5094019;28;20373;-79
2023/10/30 06:39:40;;;;;;;11.43;2.08;;;;;;;;;;5093809;28;20465;-79
2023/10/30 06:42:05;;;;;;;9.63;2.10;;;;;;;;;;5095097;28;20031;-79
2023/10/30 06:44:33;;;;;;;13.32;2.30;;;;;;;;;;5093881;28;20035;-80
2023/10/30 06:46:59;;;;;;;5.53;1.63;;;;;;;;;;5094419;28;20030;-80
2023/10/30 06:49:25;;;;;;;6.88;1.80;;;;;;;;;;5097587;28;20424;-76
2023/10/30 06:51:53;;;;;;;4.95;1.75;;;;;;;;;;5119300;28;20027;-77
2023/10/30 06:54:19;;;;;;;10.10;1.85;;;;;;;;;;5117363;28;20121;-79
2023/10/30 06:56:44;;;;;;;5.03;1.77;;;;;;;;;;5113948;28;20098;-77
2023/10/30 06:59:12;;;;;;;10.38;1.80;;;;;;;;;;5094780;28;20043;-78
2023/10/30 07:01:43;;;;;;;6.88;1.85;;;;;;;;;;5113723;28;20437;-77
2023/10/30 07:04:11;;;;;;;12.43;1.83;;;;;;;;;;5113735;28;20080;-77
2023/10/30 07:06:38;;;;;;;9.20;1.80;;;;;;;;;;5112412;28;20027;-78
2023/10/30 07:09:06;;;;;;;9.52;2.00;;;;;;;;;;5096261;28;20024;-78
2023/10/30 07:11:33;;;;;;;8.82;1.70;;;;;;;;;;5113731;28;20032;-78
2023/10/30 07:13:58;;;;;;;7.68;2.00;;;;;;;;;;5114833;28;20031;-79
2023/10/30 07:16:24;;;;;;;7.00;1.92;;;;;;;;;;5114066;28;20028;-77
2023/10/30 07:18:50;;;;;;;7.07;1.58;;;;;;;;;;5113625;28;20038;-78
2023/10/30 07:21:18;;;;;;;7.53;1.80;;;;;;;;;;5114388;28;20024;-77
2023/10/30 07:23:43;;;;;;;7.75;1.80;;;;;;;;;;5105871;28;20173;-79
2023/10/30 07:26:09;;;;;;;9.10;2.35;;;;;;;;;;5096641;28;20455;-76
2023/10/30 07:28:34;;;;;;;5.93;1.75;;;;;;;;;;5092579;28;20028;-77
2023/10/30 07:30:59;;;;;;;7.15;2.00;;;;;;;;;;5092991;28;20036;-80
2023/10/30 07:33:25;;;;;;;7.20;2.00;;;;;;;;;;5093096;28;20422;-78
2023/10/30 07:35:54;;;;;;;5.18;1.70;;;;;;;;;;5075289;28;20031;-78
2023/10/30 07:38:20;;;;;;;4.72;1.70;;;;;;;;;;5093749;28;20449;-77
2023/10/30 07:40:45;;;;;;;6.72;1.92;;;;;;;;;;5092350;28;20084;-76
2023/10/30 07:43:11;;;;;;;5.85;1.60;;;;;;;;;;5112779;28;20476;-77
2023/10/30 07:45:40;;;;;;;6.78;2.25;;;;;;;;;;5112882;28;20027;-79
2023/10/30 07:48:06;;;;;;;8.27;1.92;;;;;;;;;;5113400;28;20028;-76
2023/10/30 07:50:38;;;;;;;8.95;2.03;;;;;;;;;;5112694;28;20024;-74
2023/10/30 07:53:04;;;;;;;11.63;1.92;;;;;;;;;;5098798;28;20036;-76
2023/10/30 07:55:30;;;;;;;7.88;1.88;;;;;;;;;;5092491;28;20024;-73
2023/10/30 07:57:56;;;;;;;16.20;2.15;;;;;;;;;;5093416;28;20032;-75
2023/10/30 08:00:21;;;;;;;10.27;1.92;;;;;;;;;;5092506;28;20110;-75
2023/10/30 08:02:47;;;;;;;7.38;1.90;;;;;;;;;;5091391;28;20067;-75
2023/10/30 08:05:15;;;;;;;6.03;1.88;;;;;;;;;;5092927;28;20024;-67
2023/10/30 08:07:41;;;;;;;8.00;2.03;;;;;;;;;;5084678;28;20028;-68
2023/10/30 08:10:07;;;;;;;6.47;1.73;;;;;;;;;;5113005;28;20188;-66
2023/10/30 08:12:33;;;;;;;8.85;2.13;;;;;;;;;;5111990;28;20110;-70
2023/10/30 08:14:59;;;;;;;7.13;1.85;;;;;;;;;;5112240;28;20471;-70
2023/10/30 08:17:25;;;;;;;9.27;2.00;;;;;;;;;;5112103;28;20031;-71
2023/10/30 08:19:51;;;;;;;7.20;2.00;;;;;;;;;;5092408;28;20445;-70
2023/10/30 08:22:16;;;;;;;6.97;2.20;;;;;;;;;;5091929;28;20039;-73
2023/10/30 08:24:42;;;;;;;8.32;2.05;;;;;;;;;;5091203;28;20044;-71
2023/10/30 08:27:07;;;;;;;8.68;2.15;;;;;;;;;;5092292;28;20551;-68
2023/10/30 08:29:33;;;;;;;6.75;1.85;;;;;;;;;;5091690;28;20024;-71
2023/10/30 08:32:00;;;;;;;6.90;1.83;;;;;;;;;;5092176;28;20028;-69
2023/10/30 08:34:26;;;;;;;9.25;2.15;;;;;;;;;;5102789;28;20060;-70
2023/10/30 08:36:52;;;;;;;4.65;1.55;;;;;;;;;;5091866;28;20173;-70
2023/10/30 08:39:17;;;;;;;5.68;1.77;;;;;;;;;;5091953;28;20024;-70
2023/10/30 08:41:43;;;;;;;8.13;2.00;;;;;;;;;;5091251;28;20093;-70
2023/10/30 08:44:08;;;;;;;8.23;1.83;;;;;;;;;;5091531;28;20111;-70
2023/10/30 08:46:34;;;;;;;7.05;1.70;;;;;;;;;;5091257;28;20111;-71
2023/10/30 08:48:59;;;;;;;8.00;1.85;;;;;;;;;;5074104;28;20028;-70
2023/10/30 08:51:25;;;;;;;6.13;1.70;;;;;;;;;;5111887;28;20367;-71
2023/10/30 08:53:51;;;;;;;7.13;1.88;;;;;;;;;;5109986;28;20032;-69
2023/10/30 08:56:17;;;;;;;6.60;2.17;;;;;;;;;;5111713;28;20069;-69
2023/10/30 08:58:43;;;;;;;7.95;2.38;;;;;;;;;;5111159;28;20028;-72
2023/10/30 09:01:08;;;;;;;6.47;2.08;;;;;;;;;;5112011;28;20100;-70
2023/10/30 09:03:34;;;;;;;5.22;1.90;;;;;;;;;;5093091;28;20063;-74
2023/10/30 09:05:59;;;;;;;7.93;1.80;;;;;;;;;;5092175;28;20028;-71
2023/10/30 09:08:25;;;;;;;6.47;1.70;;;;;;;;;;5091654;28;20043;-70
2023/10/30 09:10:51;;;;;;;5.25;1.73;;;;;;;;;;5090846;28;20024;-71
2023/10/30 09:13:16;;;;;;;4.72;1.80;;;;;;;;;;5073531;28;20028;-72
2023/10/30 09:15:42;;;;;;;5.38;1.80;;;;;;;;;;5093517;28;20114;-71
2023/10/30 09:18:10;;;;;;;7.43;2.15;;;;;;;;;;5077515;28;20031;-70
2023/10/30 09:20:35;;;;;;;4.75;1.67;;;;;;;;;;5097861;28;20028;-77
2023/10/30 09:23:01;;;;;;;6.05;1.80;;;;;;;;;;5110251;28;20464;-72
2023/10/30 09:25:26;;;;;;;5.05;1.67;;;;;;;;;;5115790;28;20047;-71
2023/10/30 09:27:52;;;;;;;5.30;1.73;;;;;;;;;;5115079;28;20085;-71
2023/10/30 09:30:18;;;;;;;5.43;1.73;;;;;;;;;;5097774;28;20347;-71
2023/10/30 09:32:44;;;;;;;7.07;1.65;;;;;;;;;;5115161;28;20093;-70
2023/10/30 09:35:09;;;;;;;6.10;1.75;;;;;;;;;;5097565;28;20107;-70
2023/10/30 09:37:35;;;;;;;3.20;1.50;;;;;;;;;;5107414;28;20036;-74
2023/10/30 09:40:02;;;;;;;5.30;1.40;;;;;;;;;;5095251;28;20028;-71
2023/10/30 09:42:29;;;;;;;3.97;1.60;;;;;;;;;;5095380;28;20469;-70
2023/10/30 09:44:54;;;;;;;5.07;1.80;;;;;;;;;;5094279;28;20071;-71
2023/10/30 09:47:23;;;;;;;2.15;1.30;;;;;;;;;;5110209;28;20058;-70
2023/10/30 09:49:50;;;;;;;3.65;1.50;;;;;;;;;;5076348;28;20051;-69
2023/10/30 09:52:15;;;;;;;2.88;1.50;;;;;;;;;;5095431;28;20032;-70
2023/10/30 09:54:44;;;;;;;3.80;1.50;;;;;;;;;;5093955;28;20031;-70
2023/10/30 09:57:12;;;;;;;3.17;1.30;;;;;;;;;;5095099;28;20115;-70
2023/10/30 09:59:38;;;;;;;2.97;1.38;;;;;;;;;;5094494;28;20032;-74
2023/10/30 10:02:03;;;;;;;2.70;1.40;;;;;;;;;;5094788;28;20161;-70
2023/10/30 10:04:29;;;;;;;5.15;1.52;;;;;;;;;;5094460;28;20028;-70
2023/10/30 10:06:54;;;;;;;2.80;1.15;;;;;;;;;;5075851;28;20047;-70
2023/10/30 10:09:20;;;;;;;4.47;1.33;;;;;;;;;;5094495;28;20493;-70
2023/10/30 10:11:46;;;;;;;3.50;1.30;;;;;;;;;;5094084;28;20133;-70
2023/10/30 10:14:14;;;;;;;3.72;1.25;;;;;;;;;;5094558;28;20103;-71
2023/10/30 10:16:40;;;;;;;5.75;1.50;;;;;;;;;;5094738;28;20028;-74
2023/10/30 10:19:22;;;;;;;4.90;1.40;;;;;;;;;;5102012;28;20024;-70
2023/10/30 10:21:51;;;;;;;3.97;1.30;;;;;;;;;;5113450;28;20096;-70
2023/10/30 10:24:37;;;;;;;2.65;1.20;;;;;;;;;;5115069;28;20059;-70
2023/10/30 10:27:04;;;;;;;3.78;1.38;;;;;;;;;;5114335;28;20050;-70
2023/10/30 10:29:35;;;;;;;4.03;1.30;;;;;;;;;;5114806;28;20035;-70
2023/10/30 10:32:04;;;;;;;2.95;1.50;;;;;;;;;;5113774;28;20104;-69
2023/10/30 10:34:31;;;;;;;3.22;1.42;;;;;;;;;;5114895;28;20035;-70
2023/10/30 10:36:59;;;;;;;3.22;1.13;;;;;;;;;;5105914;28;20031;-70
2023/10/30 10:39:25;;;;;;;4.15;1.35;;;;;;;;;;5094355;28;20028;-70
2023/10/30 10:41:51;;;;;;;4.57;1.60;;;;;;;;;;5090074;28;20031;-70
2023/10/30 10:44:19;;;;;;;4.53;1.40;;;;;;;;;;5114995;28;20110;-70
2023/10/30 10:46:47;;;;;;;4.70;1.40;;;;;;;;;;5114220;28;20031;-70
2023/10/30 10:49:12;;;;;;;1.90;1.30;;;;;;;;;;5114624;28;20028;-72
2023/10/30 10:51:40;;;;;;;5.75;1.50;;;;;;;;;;5114789;28;20198;-70
2023/10/30 10:54:13;;;;;;;3.70;1.65;;;;;;;;;;5114251;28;20034;-70
2023/10/30 10:56:42;;;;;;;3.80;1.42;;;;;;;;;;5114263;28;20088;-73
2023/10/30 10:59:12;;;;;;;2.63;1.27;;;;;;;;;;5114223;28;20027;-69
2023/10/30 11:01:40;;;;;;;2.30;1.35;;;;;;;;;;5096073;28;20024;-71
2023/10/30 11:04:08;;;;;;;2.88;1.35;;;;;;;;;;5100128;28;20481;-69
2023/10/30 11:06:41;;;;;;;3.05;1.45;;;;;;;;;;5093905;28;20062;-69
2023/10/30 11:09:14;;;;;;;1.42;1.00;;;;;;;;;;5093276;28;20028;-69
2023/10/30 11:12:27;;;;;;;2.53;1.30;;;;;;;;;;5093666;28;20119;-75
2023/10/30 11:15:02;;;;;;;1.85;1.27;;;;;;;;;;5010373;28;20584;-70
2023/10/30 11:17:27;;;;;;;2.10;1.15;;;;;;;;;;5088432;28;20123;-69
2023/10/30 11:20:03;;;;;;;2.22;1.20;;;;;;;;;;5092676;28;20110;-70
2023/10/30 11:22:42;;;;;;;3.38;1.15;;;;;;;;;;5093264;28;20043;-70
2023/10/30 11:25:36;;;;;;;3.05;1.35;;;;;;;;;;5074704;28;20122;-69
2023/10/30 11:28:02;;;;;;;1.48;1.13;;;;;;;;;;5081190;28;20040;-71
2023/10/30 11:30:32;;;;;;;1.13;1.00;;;;;;;;;;5093111;28;20024;-68
2023/10/30 11:32:58;;;;;;;1.47;1.10;;;;;;;;;;5092515;28;20119;-69
2023/10/30 11:35:24;;;;;;;2.40;1.20;;;;;;;;;;5093459;28;20059;-69
2023/10/30 11:37:52;;;;;;;1.98;1.20;;;;;;;;;;5091714;28;20028;-70
2023/10/30 11:40:18;;;;;;;2.50;1.00;;;;;;;;;;5094765;28;20024;-67
2023/10/30 11:42:44;;;;;;;2.83;1.20;;;;;;;;;;5110899;28;20034;-74
2023/10/30 11:45:30;;;;;;;3.53;1.20;;;;;;;;;;5113401;28;20032;-68
2023/10/30 11:48:02;;;;;;;2.92;1.02;;;;;;;;;;5110708;28;20476;-66
2023/10/30 11:50:31;;;;;;;3.00;1.35;;;;;;;;;;5092554;28;20050;-68
2023/10/30 11:53:07;;;;;;;1.88;1.20;;;;;;;;;;5074041;28;20086;-69
2023/10/30 11:55:33;;;;;;;1.83;1.30;;;;;;;;;;5093253;28;20024;-69
2023/10/30 11:57:59;;;;;;;2.65;1.40;;;;;;;;;;5092211;28;20302;-68
2023/10/30 12:00:24;;;;;;;2.67;1.33;;;;;;;;;;5094663;28;20106;-69
2023/10/30 12:02:50;;;;;;;2.67;1.40;;;;;;;;;;5103068;28;20114;-69
2023/10/30 12:05:16;;;;;;;4.65;1.50;;;;;;;;;;5102314;28;20032;-67
2023/10/30 12:07:44;;;;;;;2.60;1.30;;;;;;;;;;5112985;28;20490;-67
2023/10/30 12:10:09;;;;;;;2.08;1.48;;;;;;;;;;5111631;28;20035;-68
2023/10/30 12:12:35;;;;;;;3.80;1.20;;;;;;;;;;5111954;28;20043;-68
2023/10/30 12:15:01;;;;;;;6.68;1.38;;;;;;;;;;5092022;28;20042;-67
2023/10/30 12:17:27;;;;;;;2.25;1.40;;;;;;;;;;5112221;28;20106;-67
2023/10/30 12:19:52;;;;;;;2.22;1.40;;;;;;;;;;5104125;28;20103;-69
2023/10/30 12:22:18;;;;;;;3.50;1.30;;;;;;;;;;5092527;28;20111;-66
2023/10/30 12:24:48;;;;;;;2.28;1.50;;;;;;;;;;5070455;28;20481;-75
2023/10/30 12:27:23;;;;;;;3.92;1.25;;;;;;;;;;5080995;28;20032;-68
2023/10/30 12:29:55;;;;;;;2.05;1.30;;;;;;;;;;5091392;28;20472;-68
2023/10/30 12:32:21;;;;;;;3.25;1.63;;;;;;;;;;5086203;28;20032;-67
2023/10/30 12:34:47;;;;;;;4.28;1.50;;;;;;;;;;5073192;28;20487;-73
2023/10/30 12:37:23;;;;;;;4.18;1.50;;;;;;;;;;5080834;28;20032;-68
2023/10/30 12:40:09;;;;;;;2.85;1.40;;;;;;;;;;5090743;28;20055;-74
2023/10/30 12:42:48;;;;;;;1.63;1.30;;;;;;;;;;5090539;28;20028;-68
2023/10/30 12:45:18;;;;;;;3.40;1.50;;;;;;;;;;5091425;28;20070;-67
2023/10/30 12:47:53;;;;;;;2.10;1.23;;;;;;;;;;5077491;28;20035;-69
2023/10/30 12:50:23;;;;;;;2.90;1.20;;;;;;;;;;5071613;28;20024;-69
2023/10/30 12:52:48;;;;;;;4.40;1.35;;;;;;;;;;5069734;28;20024;-72
2023/10/30 12:55:13;;;;;;;1.67;1.20;;;;;;;;;;5086627;28;20028;-68
2023/10/30 12:57:42;;;;;;;1.52;1.08;;;;;;;;;;5071306;28;20032;-68
2023/10/30 13:00:11;;;;;;;3.33;1.00;;;;;;;;;;5070770;28;20180;-68
2023/10/30 13:02:37;;;;;;;1.45;1.10;;;;;;;;;;5070482;28;20090;-68
2023/10/30 13:05:03;;;;;;;1.85;1.17;;;;;;;;;;5070320;28;20040;-68
2023/10/30 13:07:28;;;;;;;2.67;1.00;;;;;;;;;;5071056;28;20400;-68
2023/10/30 13:09:54;;;;;;;1.83;1.10;;;;;;;;;;5071713;28;20036;-68
2023/10/30 13:12:19;;;;;;;3.22;1.20;;;;;;;;;;5086951;28;20031;-68
2023/10/30 13:14:45;;;;;;;2.85;1.10;;;;;;;;;;5070653;28;20040;-68
2023/10/30 13:17:10;;;;;;;1.50;1.00;;;;;;;;;;5068626;28;20086;-68
2023/10/30 13:19:36;;;;;;;2.25;1.10;;;;;;;;;;5071033;28;20548;-68
2023/10/30 13:22:03;;;;;;;2.97;1.20;;;;;;;;;;5069924;28;20032;-68
2023/10/30 13:24:28;;;;;;;2.42;1.02;;;;;;;;;;5077492;28;20427;-69
2023/10/30 13:26:54;;;;;;;1.92;0.80;;;;;;;;;;5072653;28;20042;-68
2023/10/30 13:29:22;;;;;;;1.30;0.98;;;;;;;;;;5097070;28;20472;-68
2023/10/30 13:31:47;;;;;;;2.10;1.08;;;;;;;;;;5090617;28;20036;-72
2023/10/30 13:34:14;;;;;;;1.90;0.82;;;;;;;;;;5090730;28;20391;-69
2023/10/30 13:36:39;;;;;;;1.60;1.08;;;;;;;;;;5091020;28;20384;-69
2023/10/30 13:39:06;;;;;;;2.45;0.90;;;;;;;;;;5090045;28;20107;-69
2023/10/30 13:41:32;;;;;;;0.80;0.70;;;;;;;;;;5090740;28;20438;-69
2023/10/30 13:43:57;;;;;;;4.70;1.00;;;;;;;;;;5090253;28;20077;-69
2023/10/30 13:46:23;;;;;;;1.27;0.77;;;;;;;;;;5092176;28;20020;-69
2023/10/30 13:48:49;;;;;;;1.23;0.90;;;;;;;;;;5093241;28;20020;-73
2023/10/30 13:51:14;;;;;;;1.80;0.90;;;;;;;;;;5100654;28;20058;-69
2023/10/30 13:53:40;;;;;;;1.77;0.90;;;;;;;;;;5090164;28;20032;-69
2023/10/30 13:56:06;;;;;;;1.10;0.80;;;;;;;;;;5090637;28;20028;-68
2023/10/30 13:58:31;;;;;;;1.95;1.10;;;;;;;;;;5094798;28;20042;-68
2023/10/30 14:00:57;;;;;;;1.17;0.98;;;;;;;;;;5102977;28;20024;-69
2023/10/30 14:03:22;;;;;;;1.42;0.85;;;;;;;;;;5112751;28;20027;-69
2023/10/30 14:05:48;;;;;;;0.90;0.80;;;;;;;;;;5100130;28;20434;-69
2023/10/30 14:08:14;;;;;;;1.15;0.98;;;;;;;;;;5094966;28;20126;-69
2023/10/30 14:10:39;;;;;;;3.60;1.20;;;;;;;;;;5094917;28;20085;-69
2023/10/30 14:13:04;;;;;;;3.47;1.13;;;;;;;;;;5094501;28;20085;-69
2023/10/30 14:15:30;;;;;;;2.55;1.10;;;;;;;;;;5106545;28;20036;-69
2023/10/30 14:17:55;;;;;;;2.70;1.17;;;;;;;;;;5097564;28;20085;-69
2023/10/30 14:20:21;;;;;;;2.88;1.30;;;;;;;;;;5094697;28;20432;-69
2023/10/30 14:22:47;;;;;;;3.65;1.10;;;;;;;;;;5076318;28;20036;-69
2023/10/30 14:25:14;;;;;;;3.58;1.20;;;;;;;;;;5075431;28;20649;-69
2023/10/30 14:27:39;;;;;;;3.03;1.30;;;;;;;;;;5103075;28;20032;-69
2023/10/30 14:30:05;;;;;;;3.10;1.30;;;;;;;;;;5112680;28;20031;-69
2023/10/30 14:32:31;;;;;;;2.85;1.25;;;;;;;;;;5112962;28;20531;-69
2023/10/30 14:34:56;;;;;;;2.75;1.25;;;;;;;;;;5095603;28;20123;-69
2023/10/30 14:37:22;;;;;;;1.92;1.23;;;;;;;;;;5113987;28;20055;-69
2023/10/30 14:39:48;;;;;;;2.78;1.27;;;;;;;;;;5103729;28;20043;-69